createdAt,value
2018-04-15T00:02:20.336Z,12.80
2018-04-15T00:04:48.641Z,12.80
2018-04-15T00:07:16.219Z,12.90
2018-04-15T00:09:44.100Z,13.00
2018-04-15T00:12:11.735Z,13.00
2018-04-15T00:14:44.226Z,13.00
2018-04-15T00:17:24.016Z,13.10
2018-04-15T00:19:54.981Z,13.00
2018-04-15T00:22:23.298Z,12.90
2018-04-15T00:24:51.703Z,12.80
2018-04-15T00:27:20.303Z,12.70
2018-04-15T00:29:48.079Z,12.60
2018-04-15T00:32:16.420Z,12.60
2018-04-15T00:34:44.903Z,12.60
2018-04-15T00:37:13.085Z,12.60
2018-04-15T00:39:41.193Z,12.80
2018-04-15T00:42:09.895Z,12.60
2018-04-15T00:44:37.512Z,12.60
2018-04-15T00:47:05.044Z,12.60
2018-04-15T00:49:33.833Z,12.60
2018-04-15T00:52:01.662Z,12.60
2018-04-15T00:54:29.425Z,12.50
2018-04-15T00:56:57.194Z,12.40
2018-04-15T00:59:25.503Z,12.50
2018-04-15T01:01:53.101Z,12.40
2018-04-15T01:04:20.654Z,12.50
2018-04-15T01:06:48.280Z,12.40
2018-04-15T01:09:16.273Z,12.30
2018-04-15T01:11:43.866Z,12.40
2018-04-15T01:14:12.227Z,12.40
2018-04-15T01:16:39.825Z,12.40
2018-04-15T01:19:09.112Z,12.30
2018-04-15T01:21:36.675Z,12.30
2018-04-15T01:24:04.279Z,12.30
2018-04-15T01:26:40.630Z,12.30
2018-04-15T01:29:09.907Z,12.30
2018-04-15T01:31:40.267Z,12.30
2018-04-15T01:34:07.775Z,12.30
2018-04-15T01:36:40.572Z,12.30
2018-04-15T01:39:08.085Z,12.20
2018-04-15T01:41:35.625Z,12.30
2018-04-15T01:44:03.212Z,12.20
2018-04-15T01:46:31.177Z,12.20
2018-04-15T01:48:59.234Z,12.30
2018-04-15T01:51:26.864Z,12.40
2018-04-15T01:53:54.477Z,12.30
2018-04-15T01:56:22.937Z,12.20
2018-04-15T01:58:50.450Z,12.20
2018-04-15T02:01:18.043Z,12.20
2018-04-15T02:03:45.626Z,12.20
2018-04-15T02:06:13.175Z,12.20
2018-04-15T02:08:41.228Z,12.20
2018-04-15T02:11:09.573Z,12.20
2018-04-15T02:13:37.417Z,12.40
2018-04-15T02:16:05.394Z,12.30
2018-04-15T02:18:32.960Z,12.30
2018-04-15T02:21:00.577Z,12.30
2018-04-15T02:23:28.265Z,12.30
2018-04-15T02:25:57.456Z,12.30
2018-04-15T02:28:25.828Z,12.40
2018-04-15T02:30:53.375Z,12.40
2018-04-15T02:33:21.313Z,12.40
2018-04-15T02:35:48.998Z,12.30
2018-04-15T03:23:46.089Z,12.00
2018-04-15T03:26:13.687Z,12.00
2018-04-15T03:28:41.489Z,12.00
2018-04-15T03:31:09.579Z,12.00
2018-04-15T03:33:37.751Z,12.00
2018-04-15T03:36:06.092Z,12.00
2018-04-15T03:38:38.170Z,12.00
2018-04-15T03:41:05.706Z,12.00
2018-04-15T03:43:33.280Z,12.10
2018-04-15T03:46:01.067Z,12.10
2018-04-15T03:48:28.649Z,12.10
2018-04-15T03:50:56.663Z,12.00
2018-04-15T03:53:24.430Z,12.00
2018-04-15T03:55:52.012Z,12.00
2018-04-15T03:58:19.604Z,12.00
2018-04-15T04:00:47.152Z,11.90
2018-04-15T04:03:14.763Z,11.90
2018-04-15T04:20:36.707Z,11.90
2018-04-15T04:23:18.282Z,12.00
2018-04-15T04:25:57.680Z,12.00
2018-04-15T04:28:25.344Z,12.00
2018-04-15T04:30:52.955Z,11.90
2018-04-15T04:33:22.420Z,11.90
2018-04-15T04:35:50.117Z,11.90
2018-04-15T04:38:17.643Z,11.90
2018-04-15T04:40:45.998Z,11.90
2018-04-15T04:43:13.609Z,11.90
2018-04-15T04:45:41.139Z,11.90
2018-04-15T04:48:08.704Z,11.80
2018-04-15T04:50:37.050Z,11.90
2018-04-15T04:53:04.712Z,11.80
2018-04-15T04:55:32.894Z,11.80
2018-04-15T04:58:02.169Z,11.90
2018-04-15T05:00:29.750Z,11.80
2018-04-15T05:02:57.305Z,11.90
2018-04-15T05:05:24.952Z,11.80
2018-04-15T05:07:52.562Z,11.80
2018-04-15T05:10:20.069Z,11.80
2018-04-15T05:12:47.666Z,11.80
2018-04-15T05:15:15.286Z,11.80
2018-04-15T05:17:43.753Z,11.80
2018-04-15T05:20:11.618Z,11.80
2018-04-15T05:22:39.957Z,11.80
2018-04-15T05:25:07.962Z,11.80
2018-04-15T05:27:35.564Z,11.80
2018-04-15T05:30:04.946Z,11.80
2018-04-15T05:32:33.666Z,11.80
2018-04-15T05:35:01.305Z,11.80
2018-04-15T05:37:29.270Z,11.80
2018-04-15T05:39:56.810Z,11.80
2018-04-15T05:42:24.427Z,11.80
2018-04-15T05:44:52.019Z,11.90
2018-04-15T05:47:20.625Z,11.80
2018-04-15T05:49:48.411Z,11.80
2018-04-15T05:52:16.776Z,11.80
2018-04-15T05:54:44.571Z,11.80
2018-04-15T05:57:12.281Z,11.80
2018-04-15T05:59:45.558Z,11.80
2018-04-15T06:02:13.104Z,11.80
2018-04-15T06:04:40.647Z,11.80
2018-04-15T06:07:08.194Z,11.90
2018-04-15T06:09:36.719Z,11.90
2018-04-15T06:12:04.320Z,11.80
2018-04-15T06:14:31.956Z,11.80
2018-04-15T06:16:59.564Z,11.80
2018-04-15T06:19:27.105Z,11.80
2018-04-15T06:21:55.445Z,11.90
2018-04-15T06:24:23.769Z,11.80
2018-04-15T06:26:51.400Z,11.90
2018-04-15T06:29:19.720Z,11.90
2018-04-15T06:31:48.152Z,12.00
2018-04-15T06:34:40.513Z,12.20
2018-04-15T08:58:29.265Z,12.70
2018-04-15T09:00:57.626Z,15.60
2018-04-15T09:03:26.419Z,15.50
2018-04-15T09:05:54.085Z,15.50
2018-04-15T09:08:28.220Z,15.70
2018-04-15T09:10:56.067Z,16.10
2018-04-15T09:16:26.914Z,16.30
2018-04-15T09:21:45.742Z,16.70
2018-04-15T09:27:06.886Z,17.10
2018-04-15T09:29:34.547Z,17.20
2018-04-15T09:32:02.060Z,17.20
2018-04-15T09:34:29.604Z,15.50
2018-04-15T09:36:57.260Z,17.10
2018-04-15T09:39:24.980Z,16.40
2018-04-15T09:41:52.635Z,17.40
2018-04-15T09:44:20.183Z,17.90
2018-04-15T09:46:47.761Z,18.90
2018-04-15T09:49:16.073Z,17.90
2018-04-15T09:51:43.646Z,17.70
2018-04-15T09:54:11.266Z,18.00
2018-04-15T09:56:39.644Z,18.50
2018-04-15T09:59:07.586Z,19.70
2018-04-15T10:01:35.114Z,19.50
2018-04-15T10:04:03.418Z,19.40
2018-04-15T10:06:40.101Z,19.60
2018-04-15T10:09:07.701Z,20.00
2018-04-15T10:11:35.272Z,18.90
2018-04-15T10:14:02.913Z,18.50
2018-04-15T10:16:31.248Z,18.40
2018-04-15T10:19:01.394Z,18.70
2018-04-15T10:21:29.758Z,19.60
2018-04-15T10:23:57.704Z,20.40
2018-04-15T10:26:25.384Z,20.50
2018-04-15T10:29:10.750Z,21.40
2018-04-15T10:31:39.168Z,20.40
2018-04-15T10:34:06.766Z,21.10
2018-04-15T10:36:35.378Z,23.20
2018-04-15T10:39:02.937Z,23.40
2018-04-15T10:41:30.612Z,23.80
2018-04-15T10:43:58.967Z,22.60
2018-04-15T10:46:26.729Z,22.40
2018-04-15T10:48:54.738Z,22.70
2018-04-15T10:51:22.281Z,22.30
2018-04-15T10:53:54.655Z,22.60
2018-04-15T10:56:30.384Z,21.90
2018-04-15T10:58:57.917Z,23.00
2018-04-15T11:01:38.114Z,23.00
2018-04-15T11:04:06.644Z,21.30
2018-04-15T11:06:34.336Z,20.60
2018-04-15T11:09:02.357Z,20.80
2018-04-15T11:11:29.884Z,20.80
2018-04-15T11:13:57.455Z,20.80
2018-04-15T11:16:26.019Z,20.80
2018-04-15T11:18:54.461Z,20.10
2018-04-15T11:21:23.045Z,20.90
2018-04-15T11:23:51.027Z,21.30
2018-04-15T11:26:18.711Z,20.20
2018-04-15T11:31:21.987Z,20.10
2018-04-15T11:33:50.835Z,19.60
2018-04-15T11:39:25.292Z,19.00
2018-04-15T11:42:18.559Z,19.10
2018-04-15T11:44:47.104Z,19.00
2018-04-15T11:54:36.104Z,19.20
2018-04-15T11:59:56.129Z,20.40
2018-04-15T12:02:23.964Z,21.40
2018-04-15T12:04:52.060Z,22.10
2018-04-15T12:16:18.123Z,21.20
2018-04-15T12:18:45.797Z,20.20
2018-04-15T12:21:14.772Z,19.50
2018-04-15T12:23:42.760Z,19.40
2018-04-15T12:26:10.748Z,19.20
2018-04-15T12:28:38.612Z,19.20
2018-04-15T12:31:10.189Z,19.60
2018-04-15T12:33:37.990Z,20.20
2018-04-15T12:36:05.964Z,20.00
2018-04-15T13:10:25.688Z,18.40
2018-04-15T13:12:54.252Z,18.30
2018-04-15T13:17:59.039Z,18.60
2018-04-15T13:20:27.371Z,18.80
2018-04-15T13:28:03.862Z,18.60
2018-04-15T13:30:32.317Z,18.80
2018-04-15T13:33:09.883Z,19.00
2018-04-15T13:35:38.219Z,19.70
2018-04-15T13:38:06.549Z,19.80
2018-04-15T13:40:34.302Z,21.10
2018-04-15T13:43:02.027Z,21.50
2018-04-15T13:45:29.588Z,21.00
2018-04-15T13:47:57.391Z,19.60
2018-04-15T13:50:25.002Z,19.80
2018-04-15T13:52:52.674Z,19.90
2018-04-15T13:55:26.549Z,20.60
2018-04-15T13:57:54.730Z,21.20
2018-04-15T14:00:23.173Z,21.60
2018-04-15T14:02:50.773Z,22.40
2018-04-15T14:05:18.531Z,23.10
2018-04-15T14:10:49.828Z,23.90
2018-04-15T14:13:39.675Z,24.50
2018-04-15T14:16:07.219Z,24.60
2018-04-15T14:18:34.881Z,24.30
2018-04-15T14:27:10.040Z,25.90
2018-04-15T14:29:38.406Z,24.50
2018-04-15T14:32:07.209Z,24.90
2018-04-15T14:34:35.604Z,24.80
2018-04-15T14:37:03.420Z,24.00
2018-04-15T14:39:31.401Z,23.90
2018-04-15T14:41:59.712Z,24.20
2018-04-15T14:44:28.069Z,23.30
2018-04-15T14:46:55.634Z,22.70
2018-04-15T14:49:23.226Z,23.10
2018-04-15T14:51:52.117Z,24.70
2018-04-15T14:54:20.484Z,23.70
2018-04-15T14:56:48.017Z,23.90
2018-04-15T14:59:16.845Z,24.10
2018-04-15T15:01:44.395Z,23.30
2018-04-15T15:04:12.044Z,23.00
2018-04-15T15:06:40.773Z,22.80
2018-04-15T15:09:08.775Z,23.20
2018-04-15T15:11:36.686Z,23.20
2018-04-15T15:14:05.048Z,22.80
2018-04-15T15:16:33.792Z,22.20
2018-04-15T15:19:04.227Z,21.80
2018-04-15T15:21:39.453Z,21.80
2018-04-15T15:24:07.489Z,21.90
2018-04-15T15:26:35.161Z,22.10
2018-04-15T15:29:06.416Z,22.00
2018-04-15T15:31:34.751Z,20.90
2018-04-15T15:34:02.401Z,21.70
2018-04-15T15:36:30.180Z,21.10
2018-04-15T15:38:57.824Z,20.70
2018-04-15T15:41:25.537Z,21.20
2018-04-15T15:43:53.149Z,20.60
2018-04-15T15:46:21.120Z,20.40
2018-04-15T15:48:48.777Z,20.10
2018-04-15T15:51:17.205Z,20.50
2018-04-15T15:53:49.755Z,20.60
2018-04-15T15:56:17.355Z,20.60
2018-04-15T15:58:44.930Z,20.70
2018-04-15T16:01:14.197Z,20.60
2018-04-15T16:03:41.766Z,20.40
2018-04-15T16:06:09.499Z,20.70
2018-04-15T16:08:39.176Z,20.60
2018-04-15T16:11:08.433Z,20.80
2018-04-15T16:13:36.013Z,20.20
2018-04-15T16:16:04.430Z,19.90
2018-04-15T16:18:32.197Z,19.60
2018-04-15T16:21:00.623Z,19.70
2018-04-15T16:23:28.597Z,19.70
2018-04-15T16:25:58.641Z,20.00
2018-04-15T16:28:28.551Z,19.50
2018-04-15T16:31:01.498Z,19.50
2018-04-15T16:33:29.886Z,19.20
2018-04-15T16:35:57.706Z,19.20
2018-04-15T16:38:27.168Z,19.30
2018-04-15T16:40:55.524Z,19.40
2018-04-15T16:43:25.211Z,19.40
2018-04-15T16:45:53.586Z,19.10
2018-04-15T16:48:21.443Z,19.20
2018-04-15T16:50:49.481Z,19.20
2018-04-15T16:53:17.698Z,19.20
2018-04-15T16:55:47.181Z,19.10
2018-04-15T16:58:15.329Z,19.10
2018-04-15T17:00:45.720Z,19.10
2018-04-15T17:03:19.246Z,19.00
2018-04-15T17:06:09.647Z,18.90
2018-04-15T17:08:37.265Z,18.90
2018-04-15T17:11:04.885Z,18.80
2018-04-15T17:13:39.484Z,18.80
2018-04-15T17:19:10.829Z,18.60
2018-04-15T17:24:31.594Z,18.50
2018-04-15T17:27:12.659Z,18.40
2018-04-15T17:29:40.337Z,18.20
2018-04-15T17:32:10.015Z,18.20
2018-04-15T17:34:40.569Z,18.10
2018-04-15T17:37:11.490Z,18.00
2018-04-15T17:39:51.989Z,18.00
2018-04-15T17:42:19.590Z,17.90
2018-04-15T17:44:51.391Z,17.80
2018-04-15T17:47:20.800Z,17.80
2018-04-15T17:49:48.894Z,17.70
2018-04-15T17:52:16.403Z,17.70
2018-04-15T17:54:44.310Z,17.70
2018-04-15T17:57:14.081Z,17.50
2018-04-15T17:59:42.637Z,17.40
2018-04-15T18:02:10.225Z,17.30
2018-04-15T18:04:38.160Z,17.00
2018-04-15T18:07:05.687Z,16.60
2018-04-15T18:09:33.369Z,16.40
2018-04-15T18:12:21.072Z,16.10
2018-04-15T18:14:49.048Z,16.10
2018-04-15T18:17:16.801Z,16.00
2018-04-15T18:19:44.369Z,15.90
2018-04-15T18:22:11.976Z,15.80
2018-04-15T18:24:39.937Z,15.70
2018-04-15T18:27:10.391Z,15.50
2018-04-15T18:29:39.470Z,15.40
2018-04-15T18:32:09.869Z,15.20
2018-04-15T18:34:37.930Z,15.00
2018-04-15T18:40:11.780Z,14.80
2018-04-15T18:42:41.309Z,14.70
2018-04-15T18:45:10.404Z,14.70
2018-04-15T18:47:38.436Z,14.60
2018-04-15T18:52:38.842Z,14.40
2018-04-15T18:55:07.112Z,14.30
2018-04-15T18:57:35.136Z,14.30
2018-04-15T19:00:03.444Z,14.20
2018-04-15T19:02:38.178Z,14.10
2018-04-15T19:05:07.215Z,14.00
2018-04-15T19:07:35.362Z,13.90
2018-04-15T19:10:03.753Z,13.80
2018-04-15T19:12:32.450Z,13.80
2018-04-15T19:14:59.979Z,13.80
2018-04-15T19:17:28.261Z,13.70
2018-04-15T19:19:55.919Z,13.80
2018-04-15T19:22:23.458Z,13.80
2018-04-15T19:24:51.012Z,13.70
2018-04-15T19:27:39.417Z,13.60
2018-04-15T19:30:07.043Z,13.50
2018-04-15T19:32:35.444Z,13.40
2018-04-15T19:35:05.800Z,13.30
2018-04-15T19:37:34.031Z,13.40
2018-04-15T19:42:35.861Z,13.20
2018-04-15T19:45:04.103Z,13.10
2018-04-15T19:47:31.624Z,13.00
2018-04-15T19:49:59.913Z,13.00
2018-04-15T19:55:12.226Z,12.90
2018-04-15T19:57:42.896Z,13.00
2018-04-15T20:00:13.825Z,12.90
2018-04-15T20:02:41.503Z,12.80
2018-04-15T20:05:09.813Z,13.00
2018-04-15T20:07:37.746Z,13.10
2018-04-15T20:10:05.288Z,12.90
2018-04-15T20:12:32.863Z,12.80
2018-04-15T20:15:00.472Z,12.70
2018-04-15T20:17:28.389Z,12.70
2018-04-15T20:19:55.935Z,12.60
2018-04-15T20:22:23.942Z,12.60
2018-04-15T20:24:51.560Z,12.50
2018-04-15T20:27:19.484Z,12.60
2018-04-15T20:29:47.098Z,12.50
2018-04-15T20:32:14.721Z,12.50
2018-04-15T20:34:43.119Z,12.40
2018-04-15T20:37:10.668Z,12.50
2018-04-15T20:39:38.976Z,12.20
2018-04-15T20:42:06.533Z,12.30
2018-04-15T20:44:34.524Z,12.30
2018-04-15T20:47:02.162Z,12.30
2018-04-15T20:49:29.733Z,12.20
2018-04-15T20:51:57.277Z,12.20
2018-04-15T20:54:24.820Z,12.20
2018-04-15T20:56:53.157Z,12.20
2018-04-15T20:59:21.244Z,12.20
2018-04-15T21:01:48.761Z,12.20
2018-04-15T21:04:17.103Z,12.20
2018-04-15T21:06:44.652Z,12.10
2018-04-15T21:09:12.205Z,12.20
2018-04-15T21:11:39.881Z,12.20
2018-04-15T21:14:08.231Z,12.20
2018-04-15T21:16:37.317Z,12.20
2018-04-15T21:19:05.668Z,12.10
2018-04-15T21:21:33.315Z,12.10
2018-04-15T21:24:00.875Z,12.20
2018-04-15T21:26:29.168Z,12.30
2018-04-15T21:28:56.686Z,12.50
2018-04-15T21:31:24.284Z,12.50
2018-04-15T21:33:51.844Z,12.50
2018-04-15T21:36:19.770Z,12.40
2018-04-15T21:38:48.076Z,12.30
2018-04-15T21:41:15.759Z,12.20
2018-04-15T21:43:43.287Z,12.10
2018-04-15T21:46:10.901Z,12.00
2018-04-15T21:48:38.958Z,12.00
2018-04-15T21:51:07.238Z,11.90
2018-04-15T21:53:34.793Z,11.80
2018-04-15T21:56:03.076Z,11.80
2018-04-15T21:58:30.677Z,11.80
2018-04-15T22:00:58.977Z,11.70
2018-04-15T22:03:26.509Z,11.80
2018-04-15T22:05:54.421Z,11.80
2018-04-15T22:08:21.947Z,11.80
2018-04-15T22:10:49.899Z,11.90
2018-04-15T22:13:17.435Z,11.90
2018-04-15T22:15:44.948Z,11.80
2018-04-15T22:18:12.905Z,11.90
2018-04-15T22:20:40.498Z,12.00
2018-04-15T22:23:08.138Z,12.00
2018-04-15T22:25:36.174Z,11.90
2018-04-15T22:28:03.783Z,12.00
2018-04-15T22:30:31.739Z,11.90
2018-04-15T22:33:00.033Z,11.90
2018-04-15T22:35:29.185Z,11.80
2018-04-15T22:37:56.808Z,11.60
2018-04-15T22:40:24.312Z,11.40
2018-04-15T22:42:51.884Z,11.40
2018-04-15T22:45:20.517Z,11.30
2018-04-15T22:47:53.770Z,11.20
2018-04-15T22:50:22.060Z,11.20
2018-04-15T22:52:50.335Z,11.20
2018-04-15T22:55:17.909Z,11.10
2018-04-15T22:57:45.832Z,11.10
2018-04-15T23:00:13.394Z,11.00
2018-04-15T23:02:40.992Z,11.00
2018-04-15T23:05:09.410Z,11.00
2018-04-15T23:07:37.011Z,11.00
2018-04-15T23:10:04.545Z,11.00
2018-04-15T23:12:32.523Z,11.00
2018-04-15T23:15:00.850Z,10.90
2018-04-15T23:17:28.438Z,10.90
2018-04-15T23:19:56.412Z,11.00
2018-04-15T23:22:23.943Z,11.00
2018-04-15T23:24:52.287Z,10.90
2018-04-15T23:27:19.799Z,10.90
2018-04-15T23:29:48.062Z,10.90
2018-04-15T23:32:15.665Z,10.90
2018-04-15T23:34:43.188Z,11.10
2018-04-15T23:37:10.717Z,11.30
2018-04-15T23:39:38.723Z,11.20
2018-04-15T23:42:06.253Z,11.30
2018-04-15T23:44:33.871Z,11.20
2018-04-15T23:47:01.454Z,11.10
2018-04-15T23:49:29.777Z,10.90
2018-04-15T23:51:58.072Z,10.90
2018-04-15T23:54:26.407Z,10.80
2018-04-15T23:56:55.773Z,10.90
2018-04-15T23:59:23.293Z,10.80
